Terminal Aerodrome Forecast
Issued by NWS Cleveland, OH

Home | Current Version | Previous Version | Text Only | Print | Product List | Glossary Off
Versions: 1 2 3 4 5 6 7 8 9 10 11 12 13 14 15 16 17 18 19 20 21

000
FTUS41 KCLE 012333
TAFTOL
TAF
KTOL 012333Z 0200/0224 20003KT P6SM SCT200
     FM020500 22003KT 4SM BR SKC
      TEMPO 0208/0212 2SM BR
     FM021400 25008KT P6SM SCT040=

USA.gov is the U.S. government's official web portal to all federal, state and local government web resources and services.